sensor_id;sensor_type;location;lat;lon;timestamp;P1;durP1;ratioP1;P2;durP2;ratioP2
3131;SDS011;62090;52.330;9.104;2023-06-24T00:01:07;10.87;;;4.90;;
3131;SDS011;62090;52.330;9.104;2023-06-24T00:03:40;9.27;;;4.80;;
3131;SDS011;62090;52.330;9.104;2023-06-24T00:06:13;11.53;;;5.00;;
3131;SDS011;62090;52.330;9.104;2023-06-24T00:08:45;7.37;;;4.97;;
3131;SDS011;62090;52.330;9.104;2023-06-24T00:11:18;9.23;;;4.50;;
3131;SDS011;62090;52.330;9.104;2023-06-24T00:13:48;7.37;;;4.17;;
3131;SDS011;62090;52.330;9.104;2023-06-24T00:16:19;8.77;;;4.53;;
3131;SDS011;62090;52.330;9.104;2023-06-24T00:18:53;7.93;;;5.00;;
3131;SDS011;62090;52.330;9.104;2023-06-24T00:21:28;8.17;;;4.90;;
3131;SDS011;62090;52.330;9.104;2023-06-24T00:23:59;7.77;;;4.97;;
3131;SDS011;62090;52.330;9.104;2023-06-24T00:26:34;13.90;;;5.73;;
3131;SDS011;62090;52.330;9.104;2023-06-24T00:29:04;7.10;;;5.20;;
3131;SDS011;62090;52.330;9.104;2023-06-24T00:31:34;13.43;;;5.53;;
3131;SDS011;62090;52.330;9.104;2023-06-24T00:34:04;12.40;;;5.10;;
3131;SDS011;62090;52.330;9.104;2023-06-24T00:36:34;16.70;;;5.30;;
3131;SDS011;62090;52.330;9.104;2023-06-24T00:39:05;7.93;;;5.20;;
3131;SDS011;62090;52.330;9.104;2023-06-24T00:41:38;7.47;;;4.73;;
3131;SDS011;62090;52.330;9.104;2023-06-24T00:44:09;10.00;;;4.80;;
3131;SDS011;62090;52.330;9.104;2023-06-24T00:46:38;15.27;;;4.97;;
3131;SDS011;62090;52.330;9.104;2023-06-24T00:49:09;10.23;;;5.53;;
3131;SDS011;62090;52.330;9.104;2023-06-24T00:51:42;18.53;;;6.00;;
3131;SDS011;62090;52.330;9.104;2023-06-24T00:54:14;23.87;;;5.50;;
3131;SDS011;62090;52.330;9.104;2023-06-24T00:56:47;11.40;;;6.13;;
3131;SDS011;62090;52.330;9.104;2023-06-24T00:59:17;11.53;;;6.67;;
3131;SDS011;62090;52.330;9.104;2023-06-24T01:01:49;14.63;;;6.47;;
3131;SDS011;62090;52.330;9.104;2023-06-24T01:04:21;10.77;;;5.30;;
3131;SDS011;62090;52.330;9.104;2023-06-24T01:07:02;11.10;;;5.83;;
3131;SDS011;62090;52.330;9.104;2023-06-24T01:10:01;15.93;;;5.53;;
3131;SDS011;62090;52.330;9.104;2023-06-24T01:12:38;17.80;;;6.30;;
3131;SDS011;62090;52.330;9.104;2023-06-24T01:15:27;12.67;;;5.87;;
3131;SDS011;62090;52.330;9.104;2023-06-24T01:18:07;13.00;;;5.80;;
3131;SDS011;62090;52.330;9.104;2023-06-24T01:20:47;9.03;;;5.40;;
3131;SDS011;62090;52.330;9.104;2023-06-24T01:23:36;13.23;;;5.60;;
3131;SDS011;62090;52.330;9.104;2023-06-24T01:26:39;13.23;;;5.97;;
3131;SDS011;62090;52.330;9.104;2023-06-24T01:29:55;11.57;;;6.27;;
3131;SDS011;62090;52.330;9.104;2023-06-24T01:32:40;12.17;;;5.90;;
3131;SDS011;62090;52.330;9.104;2023-06-24T01:35:15;12.43;;;6.27;;
3131;SDS011;62090;52.330;9.104;2023-06-24T01:37:50;13.67;;;6.30;;
3131;SDS011;62090;52.330;9.104;2023-06-24T01:40:37;11.30;;;6.17;;
3131;SDS011;62090;52.330;9.104;2023-06-24T01:43:13;8.87;;;6.13;;
3131;SDS011;62090;52.330;9.104;2023-06-24T01:45:49;13.70;;;5.20;;
3131;SDS011;62090;52.330;9.104;2023-06-24T01:48:25;8.67;;;6.10;;
3131;SDS011;62090;52.330;9.104;2023-06-24T01:50:59;12.53;;;6.53;;
3131;SDS011;62090;52.330;9.104;2023-06-24T01:53:44;10.80;;;6.10;;
3131;SDS011;62090;52.330;9.104;2023-06-24T02:02:29;11.17;;;5.90;;
3131;SDS011;62090;52.330;9.104;2023-06-24T02:37:43;12.90;;;5.63;;
3131;SDS011;62090;52.330;9.104;2023-06-24T02:45:48;9.40;;;5.73;;
3131;SDS011;62090;52.330;9.104;2023-06-24T02:55:42;17.43;;;6.50;;
3131;SDS011;62090;52.330;9.104;2023-06-24T02:58:13;9.73;;;6.80;;
3131;SDS011;62090;52.330;9.104;2023-06-24T03:00:54;18.07;;;6.37;;
3131;SDS011;62090;52.330;9.104;2023-06-24T03:03:31;17.33;;;6.87;;
3131;SDS011;62090;52.330;9.104;2023-06-24T03:06:08;13.10;;;6.57;;
3131;SDS011;62090;52.330;9.104;2023-06-24T03:08:40;10.13;;;6.07;;
3131;SDS011;62090;52.330;9.104;2023-06-24T03:11:14;9.03;;;6.77;;
3131;SDS011;62090;52.330;9.104;2023-06-24T03:14:54;19.17;;;6.27;;
3131;SDS011;62090;52.330;9.104;2023-06-24T03:17:25;14.80;;;6.60;;
3131;SDS011;62090;52.330;9.104;2023-06-24T03:19:56;21.83;;;6.73;;
3131;SDS011;62090;52.330;9.104;2023-06-24T03:22:26;12.97;;;6.83;;
3131;SDS011;62090;52.330;9.104;2023-06-24T03:24:58;17.90;;;6.50;;
3131;SDS011;62090;52.330;9.104;2023-06-24T03:27:31;16.70;;;7.40;;
3131;SDS011;62090;52.330;9.104;2023-06-24T03:30:02;14.43;;;7.10;;
3131;SDS011;62090;52.330;9.104;2023-06-24T03:32:35;9.23;;;6.30;;
3131;SDS011;62090;52.330;9.104;2023-06-24T03:35:06;18.37;;;7.30;;
3131;SDS011;62090;52.330;9.104;2023-06-24T03:37:36;10.50;;;6.70;;
3131;SDS011;62090;52.330;9.104;2023-06-24T03:40:07;19.13;;;5.87;;
3131;SDS011;62090;52.330;9.104;2023-06-24T03:42:42;12.97;;;6.73;;
3131;SDS011;62090;52.330;9.104;2023-06-24T03:45:12;16.20;;;6.70;;
3131;SDS011;62090;52.330;9.104;2023-06-24T03:47:44;10.13;;;7.03;;
3131;SDS011;62090;52.330;9.104;2023-06-24T03:50:14;17.70;;;7.93;;
3131;SDS011;62090;52.330;9.104;2023-06-24T03:52:44;16.83;;;6.70;;
3131;SDS011;62090;52.330;9.104;2023-06-24T03:55:14;18.47;;;6.90;;
3131;SDS011;62090;52.330;9.104;2023-06-24T03:57:47;13.57;;;6.53;;
3131;SDS011;62090;52.330;9.104;2023-06-24T04:00:17;16.80;;;7.97;;
3131;SDS011;62090;52.330;9.104;2023-06-24T04:02:47;11.10;;;6.87;;
3131;SDS011;62090;52.330;9.104;2023-06-24T04:05:19;12.70;;;6.63;;
3131;SDS011;62090;52.330;9.104;2023-06-24T04:07:50;10.33;;;6.97;;
3131;SDS011;62090;52.330;9.104;2023-06-24T04:10:20;11.73;;;6.90;;
3131;SDS011;62090;52.330;9.104;2023-06-24T04:12:58;23.37;;;6.77;;
3131;SDS011;62090;52.330;9.104;2023-06-24T04:15:28;14.47;;;7.43;;
3131;SDS011;62090;52.330;9.104;2023-06-24T04:17:59;11.70;;;7.40;;
3131;SDS011;62090;52.330;9.104;2023-06-24T04:20:29;11.97;;;6.73;;
3131;SDS011;62090;52.330;9.104;2023-06-24T04:23:01;12.07;;;6.90;;
3131;SDS011;62090;52.330;9.104;2023-06-24T04:25:36;23.37;;;7.87;;
3131;SDS011;62090;52.330;9.104;2023-06-24T04:28:09;15.90;;;8.17;;
3131;SDS011;62090;52.330;9.104;2023-06-24T04:30:39;23.13;;;8.23;;
3131;SDS011;62090;52.330;9.104;2023-06-24T04:33:23;12.77;;;7.60;;
3131;SDS011;62090;52.330;9.104;2023-06-24T04:35:54;20.67;;;6.70;;
3131;SDS011;62090;52.330;9.104;2023-06-24T04:38:44;19.53;;;8.13;;
3131;SDS011;62090;52.330;9.104;2023-06-24T04:41:14;18.07;;;7.77;;
3131;SDS011;62090;52.330;9.104;2023-06-24T04:43:47;20.17;;;7.83;;
3131;SDS011;62090;52.330;9.104;2023-06-24T04:46:17;17.23;;;7.70;;
3131;SDS011;62090;52.330;9.104;2023-06-24T04:48:48;17.87;;;7.63;;
3131;SDS011;62090;52.330;9.104;2023-06-24T04:51:18;12.40;;;8.07;;
3131;SDS011;62090;52.330;9.104;2023-06-24T04:53:54;20.83;;;7.73;;
3131;SDS011;62090;52.330;9.104;2023-06-24T04:56:28;16.17;;;7.23;;
3131;SDS011;62090;52.330;9.104;2023-06-24T04:59:05;18.03;;;8.37;;
3131;SDS011;62090;52.330;9.104;2023-06-24T05:01:36;14.80;;;6.87;;
3131;SDS011;62090;52.330;9.104;2023-06-24T05:04:09;16.30;;;8.40;;
3131;SDS011;62090;52.330;9.104;2023-06-24T05:06:39;17.40;;;7.90;;
3131;SDS011;62090;52.330;9.104;2023-06-24T05:09:10;13.63;;;6.70;;
3131;SDS011;62090;52.330;9.104;2023-06-24T05:11:41;14.80;;;7.47;;
3131;SDS011;62090;52.330;9.104;2023-06-24T05:14:14;15.67;;;8.07;;
3131;SDS011;62090;52.330;9.104;2023-06-24T05:16:47;20.03;;;7.87;;
3131;SDS011;62090;52.330;9.104;2023-06-24T05:19:21;21.83;;;9.23;;
3131;SDS011;62090;52.330;9.104;2023-06-24T05:22:00;17.53;;;9.03;;
3131;SDS011;62090;52.330;9.104;2023-06-24T05:24:31;21.33;;;9.63;;
3131;SDS011;62090;52.330;9.104;2023-06-24T05:27:05;17.30;;;8.80;;
3131;SDS011;62090;52.330;9.104;2023-06-24T05:29:45;21.37;;;9.43;;
3131;SDS011;62090;52.330;9.104;2023-06-24T05:32:27;14.63;;;8.43;;
3131;SDS011;62090;52.330;9.104;2023-06-24T05:35:02;16.10;;;8.77;;
3131;SDS011;62090;52.330;9.104;2023-06-24T05:37:37;20.80;;;10.03;;
3131;SDS011;62090;52.330;9.104;2023-06-24T05:40:17;22.43;;;8.93;;
3131;SDS011;62090;52.330;9.104;2023-06-24T05:42:53;15.93;;;8.27;;
3131;SDS011;62090;52.330;9.104;2023-06-24T05:45:33;18.13;;;9.10;;
3131;SDS011;62090;52.330;9.104;2023-06-24T05:48:04;13.70;;;8.53;;
3131;SDS011;62090;52.330;9.104;2023-06-24T05:50:34;16.93;;;8.63;;
3131;SDS011;62090;52.330;9.104;2023-06-24T05:53:04;15.93;;;8.60;;
3131;SDS011;62090;52.330;9.104;2023-06-24T05:55:34;21.20;;;7.97;;
3131;SDS011;62090;52.330;9.104;2023-06-24T05:58:04;15.13;;;8.40;;
3131;SDS011;62090;52.330;9.104;2023-06-24T06:00:37;14.93;;;8.60;;
3131;SDS011;62090;52.330;9.104;2023-06-24T06:03:07;11.23;;;7.33;;
3131;SDS011;62090;52.330;9.104;2023-06-24T06:05:37;13.67;;;7.73;;
3131;SDS011;62090;52.330;9.104;2023-06-24T06:08:07;12.83;;;6.83;;
3131;SDS011;62090;52.330;9.104;2023-06-24T06:10:37;16.53;;;7.53;;
3131;SDS011;62090;52.330;9.104;2023-06-24T06:13:08;11.47;;;7.53;;
3131;SDS011;62090;52.330;9.104;2023-06-24T06:15:46;13.70;;;6.80;;
3131;SDS011;62090;52.330;9.104;2023-06-24T06:18:16;13.73;;;7.33;;
3131;SDS011;62090;52.330;9.104;2023-06-24T06:20:46;11.87;;;6.63;;
3131;SDS011;62090;52.330;9.104;2023-06-24T06:23:16;10.37;;;6.20;;
3131;SDS011;62090;52.330;9.104;2023-06-24T06:25:46;9.57;;;6.87;;
3131;SDS011;62090;52.330;9.104;2023-06-24T06:28:16;13.50;;;5.37;;
3131;SDS011;62090;52.330;9.104;2023-06-24T06:30:49;11.10;;;5.13;;
3131;SDS011;62090;52.330;9.104;2023-06-24T06:33:19;10.73;;;5.97;;
3131;SDS011;62090;52.330;9.104;2023-06-24T06:35:48;10.90;;;6.13;;
3131;SDS011;62090;52.330;9.104;2023-06-24T06:38:18;9.20;;;5.40;;
3131;SDS011;62090;52.330;9.104;2023-06-24T06:40:48;8.20;;;5.50;;
3131;SDS011;62090;52.330;9.104;2023-06-24T06:43:18;8.50;;;5.33;;
3131;SDS011;62090;52.330;9.104;2023-06-24T06:45:50;11.57;;;5.87;;
3131;SDS011;62090;52.330;9.104;2023-06-24T06:48:20;9.97;;;5.30;;
3131;SDS011;62090;52.330;9.104;2023-06-24T06:50:50;8.57;;;5.03;;
3131;SDS011;62090;52.330;9.104;2023-06-24T06:53:20;7.77;;;5.00;;
3131;SDS011;62090;52.330;9.104;2023-06-24T06:55:50;8.77;;;4.53;;
3131;SDS011;62090;52.330;9.104;2023-06-24T06:58:19;15.80;;;5.07;;
3131;SDS011;62090;52.330;9.104;2023-06-24T07:00:52;7.10;;;4.83;;
3131;SDS011;62090;52.330;9.104;2023-06-24T07:03:22;11.47;;;4.33;;
3131;SDS011;62090;52.330;9.104;2023-06-24T07:05:52;6.80;;;3.83;;
3131;SDS011;62090;52.330;9.104;2023-06-24T07:08:21;12.33;;;4.50;;
3131;SDS011;62090;52.330;9.104;2023-06-24T07:10:51;9.73;;;4.37;;
3131;SDS011;62090;52.330;9.104;2023-06-24T07:13:21;5.20;;;3.50;;
3131;SDS011;62090;52.330;9.104;2023-06-24T07:15:53;17.53;;;4.57;;
3131;SDS011;62090;52.330;9.104;2023-06-24T07:18:24;9.17;;;4.37;;
3131;SDS011;62090;52.330;9.104;2023-06-24T07:21:00;5.70;;;4.10;;
3131;SDS011;62090;52.330;9.104;2023-06-24T07:23:34;8.57;;;3.70;;
3131;SDS011;62090;52.330;9.104;2023-06-24T07:26:04;9.87;;;3.77;;
3131;SDS011;62090;52.330;9.104;2023-06-24T07:28:34;12.30;;;4.13;;
3131;SDS011;62090;52.330;9.104;2023-06-24T07:31:06;7.60;;;3.90;;
3131;SDS011;62090;52.330;9.104;2023-06-24T07:33:37;11.03;;;4.30;;
3131;SDS011;62090;52.330;9.104;2023-06-24T07:36:07;4.90;;;4.10;;
3131;SDS011;62090;52.330;9.104;2023-06-24T07:38:37;8.23;;;4.00;;
3131;SDS011;62090;52.330;9.104;2023-06-24T07:41:07;9.43;;;4.07;;
3131;SDS011;62090;52.330;9.104;2023-06-24T07:43:37;9.30;;;3.43;;
3131;SDS011;62090;52.330;9.104;2023-06-24T07:46:09;7.90;;;4.50;;
3131;SDS011;62090;52.330;9.104;2023-06-24T07:48:39;8.50;;;4.30;;
3131;SDS011;62090;52.330;9.104;2023-06-24T07:51:12;8.10;;;4.57;;
3131;SDS011;62090;52.330;9.104;2023-06-24T07:53:42;11.33;;;4.50;;
3131;SDS011;62090;52.330;9.104;2023-06-24T07:56:11;8.00;;;4.60;;
3131;SDS011;62090;52.330;9.104;2023-06-24T07:58:41;7.33;;;3.90;;
3131;SDS011;62090;52.330;9.104;2023-06-24T08:01:13;5.13;;;4.03;;
3131;SDS011;62090;52.330;9.104;2023-06-24T08:03:43;7.23;;;4.60;;
3131;SDS011;62090;52.330;9.104;2023-06-24T08:06:13;7.07;;;4.20;;
3131;SDS011;62090;52.330;9.104;2023-06-24T08:08:43;6.80;;;4.30;;
3131;SDS011;62090;52.330;9.104;2023-06-24T08:11:13;13.07;;;5.07;;
3131;SDS011;62090;52.330;9.104;2023-06-24T08:13:43;8.00;;;5.00;;
3131;SDS011;62090;52.330;9.104;2023-06-24T08:16:16;6.33;;;4.30;;
3131;SDS011;62090;52.330;9.104;2023-06-24T08:18:47;6.43;;;3.90;;
3131;SDS011;62090;52.330;9.104;2023-06-24T08:21:17;7.93;;;4.33;;
3131;SDS011;62090;52.330;9.104;2023-06-24T08:23:46;11.63;;;4.80;;
3131;SDS011;62090;52.330;9.104;2023-06-24T08:26:16;6.00;;;4.07;;
3131;SDS011;62090;52.330;9.104;2023-06-24T08:28:46;11.30;;;5.50;;
3131;SDS011;62090;52.330;9.104;2023-06-24T08:31:19;6.50;;;3.80;;
3131;SDS011;62090;52.330;9.104;2023-06-24T08:33:51;4.53;;;4.07;;
3131;SDS011;62090;52.330;9.104;2023-06-24T08:36:22;5.93;;;4.57;;
3131;SDS011;62090;52.330;9.104;2023-06-24T08:38:52;5.10;;;3.50;;
3131;SDS011;62090;52.330;9.104;2023-06-24T08:41:22;4.97;;;3.80;;
3131;SDS011;62090;52.330;9.104;2023-06-24T08:43:54;9.10;;;4.20;;
3131;SDS011;62090;52.330;9.104;2023-06-24T08:46:26;7.73;;;4.10;;
3131;SDS011;62090;52.330;9.104;2023-06-24T08:48:59;6.90;;;4.30;;
3131;SDS011;62090;52.330;9.104;2023-06-24T08:51:33;5.70;;;4.33;;
3131;SDS011;62090;52.330;9.104;2023-06-24T08:54:09;8.83;;;4.03;;
3131;SDS011;62090;52.330;9.104;2023-06-24T08:56:39;9.33;;;3.97;;
3131;SDS011;62090;52.330;9.104;2023-06-24T08:59:10;5.90;;;4.20;;
3131;SDS011;62090;52.330;9.104;2023-06-24T09:01:48;9.10;;;4.20;;
3131;SDS011;62090;52.330;9.104;2023-06-24T09:04:19;8.10;;;4.53;;
3131;SDS011;62090;52.330;9.104;2023-06-24T09:06:49;12.80;;;4.40;;
3131;SDS011;62090;52.330;9.104;2023-06-24T09:09:19;6.80;;;3.73;;
3131;SDS011;62090;52.330;9.104;2023-06-24T09:11:52;7.70;;;4.10;;
3131;SDS011;62090;52.330;9.104;2023-06-24T09:14:23;6.63;;;3.70;;
3131;SDS011;62090;52.330;9.104;2023-06-24T09:16:57;5.23;;;3.83;;
3131;SDS011;62090;52.330;9.104;2023-06-24T09:19:28;8.03;;;4.10;;
3131;SDS011;62090;52.330;9.104;2023-06-24T09:22:01;7.60;;;3.77;;
3131;SDS011;62090;52.330;9.104;2023-06-24T09:24:32;9.73;;;3.40;;
3131;SDS011;62090;52.330;9.104;2023-06-24T09:27:03;4.60;;;3.37;;
3131;SDS011;62090;52.330;9.104;2023-06-24T09:29:34;7.40;;;4.17;;
3131;SDS011;62090;52.330;9.104;2023-06-24T09:32:07;6.10;;;4.03;;
3131;SDS011;62090;52.330;9.104;2023-06-24T09:34:38;6.03;;;4.50;;
3131;SDS011;62090;52.330;9.104;2023-06-24T09:37:08;6.10;;;3.77;;
3131;SDS011;62090;52.330;9.104;2023-06-24T09:39:39;6.77;;;3.43;;
3131;SDS011;62090;52.330;9.104;2023-06-24T09:42:12;6.70;;;3.80;;
3131;SDS011;62090;52.330;9.104;2023-06-24T09:44:41;8.40;;;4.10;;
3131;SDS011;62090;52.330;9.104;2023-06-24T09:47:14;4.80;;;3.27;;
3131;SDS011;62090;52.330;9.104;2023-06-24T09:49:44;8.53;;;3.63;;
3131;SDS011;62090;52.330;9.104;2023-06-24T09:52:13;4.50;;;3.33;;
3131;SDS011;62090;52.330;9.104;2023-06-24T09:54:43;6.13;;;4.00;;
3131;SDS011;62090;52.330;9.104;2023-06-24T09:57:16;5.20;;;2.90;;
3131;SDS011;62090;52.330;9.104;2023-06-24T09:59:52;8.40;;;3.80;;
3131;SDS011;62090;52.330;9.104;2023-06-24T10:02:25;5.40;;;3.10;;
3131;SDS011;62090;52.330;9.104;2023-06-24T10:04:55;6.60;;;3.07;;
3131;SDS011;62090;52.330;9.104;2023-06-24T10:07:26;8.50;;;3.70;;
3131;SDS011;62090;52.330;9.104;2023-06-24T10:09:56;7.03;;;3.73;;
3131;SDS011;62090;52.330;9.104;2023-06-24T10:12:26;6.03;;;3.90;;
3131;SDS011;62090;52.330;9.104;2023-06-24T10:14:56;7.90;;;3.40;;
3131;SDS011;62090;52.330;9.104;2023-06-24T10:17:28;7.73;;;4.10;;
3131;SDS011;62090;52.330;9.104;2023-06-24T10:19:59;4.87;;;3.20;;
3131;SDS011;62090;52.330;9.104;2023-06-24T10:22:33;5.67;;;3.60;;
3131;SDS011;62090;52.330;9.104;2023-06-24T10:25:05;6.83;;;3.40;;
3131;SDS011;62090;52.330;9.104;2023-06-24T10:27:39;7.20;;;4.10;;
3131;SDS011;62090;52.330;9.104;2023-06-24T10:30:16;6.03;;;3.87;;
3131;SDS011;62090;52.330;9.104;2023-06-24T10:32:53;11.67;;;3.73;;
3131;SDS011;62090;52.330;9.104;2023-06-24T10:35:23;9.23;;;3.90;;
3131;SDS011;62090;52.330;9.104;2023-06-24T10:37:57;5.30;;;4.03;;
3131;SDS011;62090;52.330;9.104;2023-06-24T10:40:34;10.27;;;4.00;;
3131;SDS011;62090;52.330;9.104;2023-06-24T10:45:57;8.20;;;4.20;;
3131;SDS011;62090;52.330;9.104;2023-06-24T10:48:30;6.17;;;4.23;;
3131;SDS011;62090;52.330;9.104;2023-06-24T10:51:00;6.67;;;4.40;;
3131;SDS011;62090;52.330;9.104;2023-06-24T10:53:30;5.63;;;4.17;;
3131;SDS011;62090;52.330;9.104;2023-06-24T10:56:00;12.40;;;4.53;;
3131;SDS011;62090;52.330;9.104;2023-06-24T10:58:31;9.20;;;4.33;;
3131;SDS011;62090;52.330;9.104;2023-06-24T11:01:07;5.70;;;4.13;;
3131;SDS011;62090;52.330;9.104;2023-06-24T11:03:42;6.70;;;4.57;;
3131;SDS011;62090;52.330;9.104;2023-06-24T11:06:11;9.77;;;5.13;;
3131;SDS011;62090;52.330;9.104;2023-06-24T11:08:44;7.90;;;4.80;;
3131;SDS011;62090;52.330;9.104;2023-06-24T11:11:20;8.03;;;4.63;;
3131;SDS011;62090;52.330;9.104;2023-06-24T11:13:51;9.13;;;4.40;;
3131;SDS011;62090;52.330;9.104;2023-06-24T11:16:22;10.67;;;4.73;;
3131;SDS011;62090;52.330;9.104;2023-06-24T11:18:54;9.90;;;5.20;;
3131;SDS011;62090;52.330;9.104;2023-06-24T11:21:27;9.23;;;5.23;;
3131;SDS011;62090;52.330;9.104;2023-06-24T11:24:00;8.70;;;5.50;;
3131;SDS011;62090;52.330;9.104;2023-06-24T11:26:30;8.37;;;5.50;;
3131;SDS011;62090;52.330;9.104;2023-06-24T11:29:00;9.00;;;5.13;;
3131;SDS011;62090;52.330;9.104;2023-06-24T11:31:30;10.80;;;5.30;;
3131;SDS011;62090;52.330;9.104;2023-06-24T11:34:03;6.53;;;4.80;;
3131;SDS011;62090;52.330;9.104;2023-06-24T11:36:34;10.30;;;5.30;;
3131;SDS011;62090;52.330;9.104;2023-06-24T11:39:05;9.33;;;5.67;;
3131;SDS011;62090;52.330;9.104;2023-06-24T11:41:36;9.87;;;5.03;;
3131;SDS011;62090;52.330;9.104;2023-06-24T11:44:06;7.80;;;4.50;;
3131;SDS011;62090;52.330;9.104;2023-06-24T11:46:37;7.70;;;5.10;;
3131;SDS011;62090;52.330;9.104;2023-06-24T11:49:10;8.40;;;4.23;;
3131;SDS011;62090;52.330;9.104;2023-06-24T11:51:47;10.20;;;5.30;;
3131;SDS011;62090;52.330;9.104;2023-06-24T11:54:21;6.87;;;4.80;;
3131;SDS011;62090;52.330;9.104;2023-06-24T11:56:51;5.73;;;4.20;;
3131;SDS011;62090;52.330;9.104;2023-06-24T11:59:21;6.70;;;4.70;;
3131;SDS011;62090;52.330;9.104;2023-06-24T12:01:52;8.20;;;4.80;;
3131;SDS011;62090;52.330;9.104;2023-06-24T12:04:29;8.13;;;5.10;;
3131;SDS011;62090;52.330;9.104;2023-06-24T12:07:00;6.33;;;3.97;;
3131;SDS011;62090;52.330;9.104;2023-06-24T12:09:30;7.07;;;4.40;;
3131;SDS011;62090;52.330;9.104;2023-06-24T12:12:00;6.13;;;4.10;;
3131;SDS011;62090;52.330;9.104;2023-06-24T12:14:30;8.00;;;4.70;;
3131;SDS011;62090;52.330;9.104;2023-06-24T12:16:59;6.87;;;4.10;;
3131;SDS011;62090;52.330;9.104;2023-06-24T12:19:32;5.90;;;4.40;;
3131;SDS011;62090;52.330;9.104;2023-06-24T12:22:02;7.53;;;4.60;;
3131;SDS011;62090;52.330;9.104;2023-06-24T12:24:32;7.77;;;5.07;;
3131;SDS011;62090;52.330;9.104;2023-06-24T12:27:01;11.07;;;4.57;;
3131;SDS011;62090;52.330;9.104;2023-06-24T12:29:35;8.60;;;4.27;;
3131;SDS011;62090;52.330;9.104;2023-06-24T12:32:05;8.27;;;4.90;;
3131;SDS011;62090;52.330;9.104;2023-06-24T12:34:39;8.53;;;4.50;;
3131;SDS011;62090;52.330;9.104;2023-06-24T12:37:08;7.80;;;4.83;;
3131;SDS011;62090;52.330;9.104;2023-06-24T12:39:38;8.33;;;4.70;;
3131;SDS011;62090;52.330;9.104;2023-06-24T12:42:08;6.83;;;4.30;;
3131;SDS011;62090;52.330;9.104;2023-06-24T12:44:38;5.73;;;4.30;;
3131;SDS011;62090;52.330;9.104;2023-06-24T12:47:08;5.27;;;4.20;;
3131;SDS011;62090;52.330;9.104;2023-06-24T12:49:40;8.63;;;5.03;;
3131;SDS011;62090;52.330;9.104;2023-06-24T12:52:10;5.60;;;4.43;;
3131;SDS011;62090;52.330;9.104;2023-06-24T12:54:40;8.93;;;4.93;;
3131;SDS011;62090;52.330;9.104;2023-06-24T12:57:10;9.07;;;5.00;;
3131;SDS011;62090;52.330;9.104;2023-06-24T12:59:40;8.00;;;5.27;;
3131;SDS011;62090;52.330;9.104;2023-06-24T13:02:10;8.37;;;4.30;;
3131;SDS011;62090;52.330;9.104;2023-06-24T13:04:42;10.00;;;4.80;;
3131;SDS011;62090;52.330;9.104;2023-06-24T13:07:14;8.30;;;4.60;;
3131;SDS011;62090;52.330;9.104;2023-06-24T13:09:44;7.07;;;4.23;;
3131;SDS011;62090;52.330;9.104;2023-06-24T13:12:13;7.63;;;4.53;;
3131;SDS011;62090;52.330;9.104;2023-06-24T13:14:43;6.50;;;4.50;;
3131;SDS011;62090;52.330;9.104;2023-06-24T13:17:13;7.50;;;4.70;;
3131;SDS011;62090;52.330;9.104;2023-06-24T13:19:45;7.87;;;4.63;;
3131;SDS011;62090;52.330;9.104;2023-06-24T13:22:15;8.53;;;4.40;;
3131;SDS011;62090;52.330;9.104;2023-06-24T13:24:45;7.47;;;3.80;;
3131;SDS011;62090;52.330;9.104;2023-06-24T13:27:15;6.40;;;4.47;;
3131;SDS011;62090;52.330;9.104;2023-06-24T13:29:45;6.13;;;3.83;;
3131;SDS011;62090;52.330;9.104;2023-06-24T13:32:15;7.70;;;4.37;;
3131;SDS011;62090;52.330;9.104;2023-06-24T13:34:47;6.30;;;4.00;;
3131;SDS011;62090;52.330;9.104;2023-06-24T13:37:17;5.87;;;4.10;;
3131;SDS011;62090;52.330;9.104;2023-06-24T13:39:47;8.67;;;4.30;;
3131;SDS011;62090;52.330;9.104;2023-06-24T13:42:16;3.90;;;3.50;;
3131;SDS011;62090;52.330;9.104;2023-06-24T13:44:46;4.70;;;3.30;;
3131;SDS011;62090;52.330;9.104;2023-06-24T13:47:16;5.47;;;3.90;;
3131;SDS011;62090;52.330;9.104;2023-06-24T13:49:48;9.23;;;4.27;;
3131;SDS011;62090;52.330;9.104;2023-06-24T13:52:18;7.40;;;4.17;;
3131;SDS011;62090;52.330;9.104;2023-06-24T13:54:48;18.60;;;4.80;;
3131;SDS011;62090;52.330;9.104;2023-06-24T13:57:18;5.83;;;4.20;;
3131;SDS011;62090;52.330;9.104;2023-06-24T13:59:48;5.10;;;4.20;;
3131;SDS011;62090;52.330;9.104;2023-06-24T14:02:17;8.20;;;4.23;;
3131;SDS011;62090;52.330;9.104;2023-06-24T14:04:50;7.90;;;4.27;;
3131;SDS011;62090;52.330;9.104;2023-06-24T14:07:20;8.03;;;4.50;;
3131;SDS011;62090;52.330;9.104;2023-06-24T14:09:51;5.60;;;4.10;;
3131;SDS011;62090;52.330;9.104;2023-06-24T14:12:21;5.23;;;4.00;;
3131;SDS011;62090;52.330;9.104;2023-06-24T14:14:51;6.20;;;4.40;;
3131;SDS011;62090;52.330;9.104;2023-06-24T14:17:21;7.63;;;4.40;;
3131;SDS011;62090;52.330;9.104;2023-06-24T14:19:53;16.43;;;5.70;;
3131;SDS011;62090;52.330;9.104;2023-06-24T14:22:23;7.83;;;4.90;;
3131;SDS011;62090;52.330;9.104;2023-06-24T14:24:53;9.70;;;3.90;;
3131;SDS011;62090;52.330;9.104;2023-06-24T14:27:23;6.40;;;3.87;;
3131;SDS011;62090;52.330;9.104;2023-06-24T14:29:52;10.47;;;4.20;;
3131;SDS011;62090;52.330;9.104;2023-06-24T14:32:22;7.57;;;4.63;;
3131;SDS011;62090;52.330;9.104;2023-06-24T14:34:56;5.00;;;4.03;;
3131;SDS011;62090;52.330;9.104;2023-06-24T14:37:26;8.63;;;4.73;;
3131;SDS011;62090;52.330;9.104;2023-06-24T14:39:56;10.90;;;3.87;;
3131;SDS011;62090;52.330;9.104;2023-06-24T14:42:26;6.60;;;4.03;;
3131;SDS011;62090;52.330;9.104;2023-06-24T14:44:56;6.73;;;4.30;;
3131;SDS011;62090;52.330;9.104;2023-06-24T14:47:27;7.07;;;4.33;;
3131;SDS011;62090;52.330;9.104;2023-06-24T14:50:00;7.93;;;3.87;;
3131;SDS011;62090;52.330;9.104;2023-06-24T14:52:30;6.20;;;3.83;;
3131;SDS011;62090;52.330;9.104;2023-06-24T14:55:00;7.70;;;4.40;;
3131;SDS011;62090;52.330;9.104;2023-06-24T14:57:31;7.78;;;4.53;;
3131;SDS011;62090;52.330;9.104;2023-06-24T15:00:01;8.00;;;4.37;;
3131;SDS011;62090;52.330;9.104;2023-06-24T15:02:31;8.20;;;4.40;;
3131;SDS011;62090;52.330;9.104;2023-06-24T15:05:04;5.40;;;4.10;;
3131;SDS011;62090;52.330;9.104;2023-06-24T15:07:34;10.53;;;5.17;;
3131;SDS011;62090;52.330;9.104;2023-06-24T15:10:05;5.10;;;3.97;;
3131;SDS011;62090;52.330;9.104;2023-06-24T15:12:35;7.80;;;4.70;;
3131;SDS011;62090;52.330;9.104;2023-06-24T15:15:07;5.97;;;3.53;;
3131;SDS011;62090;52.330;9.104;2023-06-24T15:17:37;4.90;;;3.90;;
3131;SDS011;62090;52.330;9.104;2023-06-24T15:20:14;5.70;;;3.30;;
3131;SDS011;62090;52.330;9.104;2023-06-24T15:22:44;6.47;;;4.00;;
3131;SDS011;62090;52.330;9.104;2023-06-24T15:25:14;5.33;;;4.20;;
3131;SDS011;62090;52.330;9.104;2023-06-24T15:27:44;4.70;;;4.20;;
3131;SDS011;62090;52.330;9.104;2023-06-24T15:30:14;5.80;;;4.30;;
3131;SDS011;62090;52.330;9.104;2023-06-24T15:32:44;6.80;;;4.03;;
3131;SDS011;62090;52.330;9.104;2023-06-24T15:35:17;7.03;;;4.50;;
3131;SDS011;62090;52.330;9.104;2023-06-24T15:37:46;8.67;;;4.73;;
3131;SDS011;62090;52.330;9.104;2023-06-24T15:40:16;4.37;;;3.60;;
3131;SDS011;62090;52.330;9.104;2023-06-24T15:42:46;4.63;;;4.13;;
3131;SDS011;62090;52.330;9.104;2023-06-24T15:45:16;12.73;;;5.00;;
3131;SDS011;62090;52.330;9.104;2023-06-24T15:47:47;4.97;;;3.70;;
3131;SDS011;62090;52.330;9.104;2023-06-24T15:50:20;4.83;;;4.23;;
3131;SDS011;62090;52.330;9.104;2023-06-24T15:52:50;5.73;;;4.90;;
3131;SDS011;62090;52.330;9.104;2023-06-24T15:55:20;7.07;;;4.20;;
3131;SDS011;62090;52.330;9.104;2023-06-24T15:57:50;5.60;;;4.20;;
3131;SDS011;62090;52.330;9.104;2023-06-24T16:00:20;5.23;;;4.50;;
3131;SDS011;62090;52.330;9.104;2023-06-24T16:02:49;10.17;;;4.43;;
3131;SDS011;62090;52.330;9.104;2023-06-24T16:05:22;6.00;;;4.30;;
3131;SDS011;62090;52.330;9.104;2023-06-24T16:07:52;7.37;;;4.40;;
3131;SDS011;62090;52.330;9.104;2023-06-24T16:10:22;8.20;;;4.20;;
3131;SDS011;62090;52.330;9.104;2023-06-24T16:12:52;8.20;;;3.90;;
3131;SDS011;62090;52.330;9.104;2023-06-24T16:15:22;10.63;;;5.33;;
3131;SDS011;62090;52.330;9.104;2023-06-24T16:17:52;8.10;;;4.67;;
3131;SDS011;62090;52.330;9.104;2023-06-24T16:20:24;5.93;;;4.20;;